Time;durP1;ratioP1;P1;durP2;ratioP2;P2;SDS_P1;SDS_P2;PMS_P1;PMS_P2;Temp;Humidity;BMP_temperature;BMP_pressure;BME280_temperature;BME280_humidity;BME280_pressure;Samples;Min_cycle;Max_cycle;Signal;HPM_P1;HPM_P2
2021/07/08 00:00:29;;;;;;;7.30;6.70;;;16.70;99.90;;;;;;5029765;28;20457;-76
2021/07/08 00:02:55;;;;;;;7.50;7.00;;;16.60;99.90;;;;;;5022859;28;20545;-76
2021/07/08 00:05:25;;;;;;;8.77;7.97;;;16.60;99.90;;;;;;5023670;28;20483;-76
2021/07/08 00:07:52;;;;;;;10.60;7.90;;;16.60;99.90;;;;;;5026496;28;20450;-76
2021/07/08 00:10:21;;;;;;;8.23;7.30;;;16.60;99.90;;;;;;5034750;28;20532;-76
2021/07/08 00:12:48;;;;;;;8.17;7.43;;;16.60;99.90;;;;;;5023379;28;20452;-76
2021/07/08 00:15:19;;;;;;;10.13;8.30;;;16.50;99.90;;;;;;5030431;28;20579;-76
2021/07/08 00:17:48;;;;;;;9.60;8.70;;;16.60;99.90;;;;;;5024558;28;20442;-76
2021/07/08 00:20:18;;;;;;;10.03;9.23;;;16.50;99.90;;;;;;5024381;28;20541;-76
2021/07/08 00:22:45;;;;;;;10.40;9.40;;;16.50;99.90;;;;;;5022642;28;20457;-76
2021/07/08 00:25:14;;;;;;;9.73;8.83;;;16.50;99.90;;;;;;5022623;28;20512;-76
2021/07/08 00:27:41;;;;;;;10.60;9.00;;;16.40;99.90;;;;;;5033288;28;20456;-76
2021/07/08 00:30:10;;;;;;;10.67;9.50;;;16.40;99.90;;;;;;5026634;28;20521;-76
2021/07/08 00:32:40;;;;;;;11.10;9.17;;;16.40;99.90;;;;;;5023096;28;20533;-76
2021/07/08 00:35:09;;;;;;;10.63;9.70;;;16.40;99.90;;;;;;5025144;28;20465;-76
2021/07/08 00:37:36;;;;;;;9.23;8.40;;;16.40;99.90;;;;;;5026986;28;20459;-76
2021/07/08 00:40:04;;;;;;;10.27;9.03;;;16.40;99.90;;;;;;5027007;28;21635;-76
2021/07/08 00:42:31;;;;;;;10.07;9.20;;;16.40;99.90;;;;;;5026095;28;20470;-76
2021/07/08 00:44:57;;;;;;;9.77;8.87;;;16.40;99.90;;;;;;5040835;28;20498;-76
2021/07/08 00:47:24;;;;;;;9.97;9.17;;;16.40;99.90;;;;;;5033104;28;20471;-76
2021/07/08 00:49:51;;;;;;;10.67;9.87;;;16.40;99.90;;;;;;5020378;28;20824;-76
2021/07/08 00:52:20;;;;;;;10.13;9.33;;;16.40;99.90;;;;;;5027633;28;20460;-76
2021/07/08 00:54:46;;;;;;;12.17;10.60;;;16.30;99.90;;;;;;5022096;28;20560;-76
2021/07/08 00:57:13;;;;;;;11.53;10.53;;;16.30;99.90;;;;;;5026979;28;20451;-76
2021/07/08 00:59:44;;;;;;;10.80;9.80;;;16.30;99.90;;;;;;5021720;28;20457;-76
2021/07/08 01:02:13;;;;;;;11.23;10.40;;;16.20;99.90;;;;;;5034170;28;21009;-76
2021/07/08 01:04:41;;;;;;;11.33;10.33;;;16.20;99.90;;;;;;5026209;28;20474;-76
2021/07/08 01:07:08;;;;;;;10.63;9.73;;;16.30;99.90;;;;;;5024427;28;20582;-76
2021/07/08 01:09:36;;;;;;;11.67;10.77;;;16.30;99.90;;;;;;5023518;28;20465;-76
2021/07/08 01:12:03;;;;;;;11.57;10.50;;;16.30;99.90;;;;;;5023578;28;20542;-76
2021/07/08 01:14:30;;;;;;;11.97;10.97;;;16.30;99.90;;;;;;5022090;28;20901;-76
2021/07/08 01:16:57;;;;;;;11.43;10.43;;;16.30;99.90;;;;;;5020640;28;20481;-76
2021/07/08 01:19:25;;;;;;;12.47;11.47;;;16.30;99.90;;;;;;5023524;28;20544;-76
2021/07/08 01:21:54;;;;;;;11.03;10.10;;;16.30;99.90;;;;;;5027726;28;20457;-77
2021/07/08 01:24:21;;;;;;;11.10;10.20;;;16.30;99.90;;;;;;5023488;28;20553;-76
2021/07/08 01:26:48;;;;;;;11.80;10.60;;;16.30;99.90;;;;;;5026794;28;20446;-77
2021/07/08 01:29:16;;;;;;;12.00;11.10;;;16.40;99.90;;;;;;5026686;28;20566;-76
2021/07/08 01:31:43;;;;;;;12.47;11.40;;;16.40;99.90;;;;;;5025204;28;20461;-76
2021/07/08 01:34:10;;;;;;;11.70;10.77;;;16.40;99.90;;;;;;5022685;28;20545;-77
2021/07/08 01:36:37;;;;;;;11.73;10.83;;;16.40;99.90;;;;;;5022532;28;21677;-76
2021/07/08 01:39:06;;;;;;;11.33;10.33;;;16.40;99.90;;;;;;5030533;28;21336;-76
2021/07/08 01:41:33;;;;;;;11.07;10.17;;;16.40;99.90;;;;;;5024182;28;20491;-76
2021/07/08 01:44:00;;;;;;;11.37;10.37;;;16.30;99.90;;;;;;5027227;28;20455;-76
2021/07/08 01:46:28;;;;;;;11.40;10.50;;;16.30;99.90;;;;;;5024596;28;20503;-78
2021/07/08 01:48:55;;;;;;;11.00;10.00;;;16.30;99.90;;;;;;5027817;28;20468;-76
2021/07/08 01:51:29;;;;;;;12.33;11.27;;;16.30;99.90;;;;;;5021297;28;20478;-77
2021/07/08 01:53:56;;;;;;;11.70;10.60;;;16.40;99.90;;;;;;5025957;28;20442;-76
2021/07/08 01:56:25;;;;;;;12.47;11.30;;;16.40;99.90;;;;;;5031272;28;20467;-76
2021/07/08 01:58:52;;;;;;;14.00;12.80;;;16.40;99.90;;;;;;5021162;28;20550;-76
2021/07/08 02:01:19;;;;;;;12.60;11.50;;;16.40;99.90;;;;;;5020570;28;20456;-77
2021/07/08 02:03:46;;;;;;;12.33;11.37;;;16.40;99.90;;;;;;5020841;28;20459;-77
2021/07/08 02:06:13;;;;;;;12.10;11.20;;;16.30;99.90;;;;;;5027971;28;21015;-77
2021/07/08 02:08:41;;;;;;;14.33;12.80;;;16.30;99.90;;;;;;5032092;28;20512;-77
2021/07/08 02:11:09;;;;;;;13.37;12.23;;;16.30;99.90;;;;;;5027403;28;20486;-77
2021/07/08 02:13:38;;;;;;;12.17;11.27;;;16.30;99.90;;;;;;5034457;28;21127;-77
2021/07/08 02:16:06;;;;;;;12.90;11.70;;;16.30;99.90;;;;;;5020688;28;20484;-77
2021/07/08 02:18:33;;;;;;;12.00;11.00;;;16.30;99.90;;;;;;5021972;28;20457;-77
2021/07/08 02:21:00;;;;;;;17.80;13.50;;;16.30;99.90;;;;;;5024488;28;21297;-77
2021/07/08 02:23:27;;;;;;;16.30;14.60;;;16.30;99.90;;;;;;5024987;28;20448;-77
2021/07/08 02:25:54;;;;;;;16.23;14.73;;;16.30;99.90;;;;;;5029035;28;20545;-77
2021/07/08 02:28:21;;;;;;;17.87;15.93;;;16.30;99.90;;;;;;5026465;28;20902;-77
2021/07/08 02:30:49;;;;;;;15.50;14.03;;;16.30;99.90;;;;;;5027393;28;20444;-76
2021/07/08 02:33:16;;;;;;;16.70;13.60;;;16.20;99.90;;;;;;5031709;28;20470;-77
2021/07/08 02:35:43;;;;;;;15.17;13.63;;;16.20;99.90;;;;;;5030110;28;20573;-76
2021/07/08 02:38:10;;;;;;;14.33;12.20;;;16.10;99.90;;;;;;5028716;28;20537;-76
2021/07/08 02:40:39;;;;;;;13.90;12.80;;;16.20;99.90;;;;;;5027244;28;20455;-76
2021/07/08 02:43:07;;;;;;;13.00;11.80;;;16.20;99.90;;;;;;5027854;28;20462;-76
2021/07/08 02:45:37;;;;;;;13.30;12.10;;;16.10;99.90;;;;;;5026163;28;20532;-77
2021/07/08 02:48:08;;;;;;;12.33;11.30;;;16.10;99.90;;;;;;5024942;28;20446;-76
2021/07/08 02:50:36;;;;;;;13.27;12.07;;;16.10;99.90;;;;;;5029101;28;20888;-76
2021/07/08 02:53:03;;;;;;;11.90;10.90;;;16.10;99.90;;;;;;5034685;28;20562;-76
2021/07/08 02:55:30;;;;;;;12.93;11.83;;;16.10;99.90;;;;;;5033205;28;20485;-76
2021/07/08 02:57:59;;;;;;;14.47;13.37;;;16.10;99.90;;;;;;5028401;28;20588;-76
2021/07/08 03:00:26;;;;;;;13.00;11.97;;;16.20;99.90;;;;;;5031276;28;20458;-77
2021/07/08 03:02:54;;;;;;;13.50;12.27;;;16.10;99.90;;;;;;5028534;28;20507;-77
2021/07/08 03:05:23;;;;;;;13.70;12.30;;;16.10;99.90;;;;;;5028265;28;20495;-77
2021/07/08 03:07:50;;;;;;;14.47;13.10;;;16.00;99.90;;;;;;5029230;28;20453;-77
2021/07/08 03:10:19;;;;;;;14.03;12.93;;;16.00;99.90;;;;;;5034541;28;20463;-77
2021/07/08 03:12:46;;;;;;;13.20;11.93;;;16.10;99.90;;;;;;5030090;28;20542;-77
2021/07/08 03:15:15;;;;;;;12.90;11.70;;;16.00;99.90;;;;;;5025499;28;20541;-76
2021/07/08 03:17:43;;;;;;;14.13;12.90;;;16.00;99.90;;;;;;5023373;28;20494;-76
2021/07/08 03:20:12;;;;;;;14.10;12.43;;;16.00;99.90;;;;;;5025875;28;20453;-76
2021/07/08 03:22:41;;;;;;;12.83;11.17;;;16.00;99.90;;;;;;5027076;28;20534;-76
2021/07/08 03:25:10;;;;;;;13.20;11.90;;;16.10;99.90;;;;;;5027207;28;21215;-76
2021/07/08 03:27:36;;;;;;;13.23;12.10;;;16.10;99.90;;;;;;5028453;28;20832;-76
2021/07/08 03:30:06;;;;;;;13.20;11.37;;;16.10;99.90;;;;;;5021161;28;20458;-76
2021/07/08 03:32:33;;;;;;;13.17;11.83;;;16.10;99.90;;;;;;5024514;28;20577;-76
2021/07/08 03:35:00;;;;;;;12.47;11.37;;;16.10;99.90;;;;;;5021494;28;20552;-76
2021/07/08 03:37:27;;;;;;;11.47;10.50;;;16.00;99.90;;;;;;5024445;28;20504;-76
2021/07/08 03:39:55;;;;;;;12.50;11.30;;;16.00;99.90;;;;;;5019149;28;20456;-76
2021/07/08 03:42:22;;;;;;;12.07;11.07;;;16.00;99.90;;;;;;5024857;28;20537;-76
2021/07/08 03:44:49;;;;;;;12.73;11.50;;;16.00;99.90;;;;;;5031672;28;20909;-76
2021/07/08 03:47:16;;;;;;;12.00;11.00;;;15.90;99.90;;;;;;5036936;28;20457;-75
2021/07/08 03:49:43;;;;;;;12.50;11.30;;;15.90;99.90;;;;;;5023188;28;20472;-76
2021/07/08 03:52:10;;;;;;;11.23;10.17;;;15.90;99.90;;;;;;5027911;28;20458;-76
2021/07/08 03:54:36;;;;;;;11.73;10.80;;;15.90;99.90;;;;;;5029655;28;20503;-76
2021/07/08 03:57:05;;;;;;;11.23;10.23;;;15.90;99.90;;;;;;5027117;28;20464;-76
2021/07/08 03:59:32;;;;;;;11.47;10.57;;;15.90;99.90;;;;;;5025588;28;20904;-76
2021/07/08 04:01:59;;;;;;;12.80;11.47;;;16.00;99.90;;;;;;5022812;28;20968;-76
2021/07/08 04:04:26;;;;;;;12.50;11.30;;;16.00;99.90;;;;;;5024553;28;20992;-76
2021/07/08 04:06:53;;;;;;;11.43;10.50;;;16.10;99.90;;;;;;5023723;28;20529;-76
2021/07/08 04:09:19;;;;;;;9.07;8.37;;;16.10;99.90;;;;;;5024518;28;20602;-76
2021/07/08 04:11:46;;;;;;;10.67;9.80;;;16.10;99.90;;;;;;5024410;28;20541;-76
2021/07/08 04:14:15;;;;;;;12.30;11.20;;;16.20;99.90;;;;;;5028243;28;20524;-76
2021/07/08 04:16:41;;;;;;;11.00;10.10;;;16.20;99.90;;;;;;5022147;28;20490;-76
2021/07/08 04:19:08;;;;;;;11.60;10.70;;;16.30;99.90;;;;;;5022174;28;21069;-77
2021/07/08 04:21:35;;;;;;;11.30;10.50;;;16.30;99.90;;;;;;5021982;28;20990;-76
2021/07/08 04:24:02;;;;;;;11.00;10.00;;;16.30;99.90;;;;;;5038747;28;20463;-76
2021/07/08 04:26:29;;;;;;;10.60;9.60;;;16.30;99.90;;;;;;5027695;28;20532;-76
2021/07/08 04:28:55;;;;;;;10.33;9.47;;;16.30;99.90;;;;;;5026074;28;20497;-76
2021/07/08 04:31:24;;;;;;;11.37;10.40;;;16.30;99.90;;;;;;5022332;28;20533;-76
2021/07/08 04:33:51;;;;;;;10.57;9.57;;;16.40;99.90;;;;;;5027256;28;20457;-76
2021/07/08 04:36:17;;;;;;;11.37;10.37;;;16.40;99.90;;;;;;5023967;28;20451;-76
2021/07/08 04:38:47;;;;;;;11.57;10.47;;;16.40;99.90;;;;;;5020477;28;20474;-76
2021/07/08 04:41:14;;;;;;;9.93;8.93;;;16.40;99.90;;;;;;5023042;28;20455;-77
2021/07/08 04:43:41;;;;;;;10.93;10.03;;;16.40;99.90;;;;;;5024250;28;20554;-76
2021/07/08 04:46:08;;;;;;;9.57;8.87;;;16.40;99.90;;;;;;5024635;28;20589;-77
2021/07/08 04:48:36;;;;;;;12.03;10.83;;;16.40;99.90;;;;;;5022589;28;20455;-77
2021/07/08 04:51:05;;;;;;;11.70;10.90;;;16.40;99.90;;;;;;5027992;28;20967;-77
2021/07/08 04:53:32;;;;;;;11.20;10.20;;;16.40;99.90;;;;;;5029014;28;20531;-75
2021/07/08 04:55:59;;;;;;;10.20;9.20;;;16.40;99.90;;;;;;5036066;28;20545;-76
2021/07/08 04:58:26;;;;;;;11.17;10.27;;;16.50;99.90;;;;;;5024752;28;20462;-76
2021/07/08 05:00:53;;;;;;;12.30;11.07;;;16.40;99.90;;;;;;5024023;28;21039;-76
2021/07/08 05:03:21;;;;;;;12.23;10.40;;;16.40;99.90;;;;;;5026080;28;20458;-76
2021/07/08 05:05:49;;;;;;;11.63;10.23;;;16.50;99.90;;;;;;5027709;28;20488;-76
2021/07/08 05:08:16;;;;;;;11.73;10.70;;;16.40;99.90;;;;;;5029441;28;20471;-76
2021/07/08 05:10:44;;;;;;;13.60;10.53;;;16.40;99.90;;;;;;5026667;28;21205;-77
2021/07/08 05:13:10;;;;;;;12.93;11.23;;;16.40;99.90;;;;;;5027755;28;20524;-77
2021/07/08 05:15:37;;;;;;;11.80;10.70;;;16.40;99.90;;;;;;5029254;28;20520;-77
2021/07/08 05:18:05;;;;;;;10.83;9.93;;;16.50;99.90;;;;;;5025283;28;20546;-77
2021/07/08 05:20:32;;;;;;;12.47;11.10;;;16.50;99.90;;;;;;5033006;28;20462;-76
2021/07/08 05:23:02;;;;;;;10.83;9.60;;;16.50;99.90;;;;;;5028989;28;20444;-77
2021/07/08 05:25:30;;;;;;;11.40;10.50;;;16.60;99.90;;;;;;5032089;28;20541;-80
2021/07/08 05:27:57;;;;;;;10.37;9.47;;;16.60;99.90;;;;;;5044196;28;20451;-81
2021/07/08 05:30:24;;;;;;;10.80;9.80;;;16.70;99.90;;;;;;5041434;28;20455;-81
2021/07/08 05:32:51;;;;;;;11.03;10.10;;;16.70;99.90;;;;;;5040075;28;20532;-81
2021/07/08 05:35:18;;;;;;;11.20;10.20;;;16.70;99.90;;;;;;5038871;28;21030;-81
2021/07/08 05:37:48;;;;;;;11.97;10.97;;;16.70;99.90;;;;;;5041047;28;20450;-81
2021/07/08 05:40:18;;;;;;;9.83;9.03;;;16.60;99.90;;;;;;5051195;28;20458;-83
2021/07/08 05:42:46;;;;;;;11.87;10.80;;;16.60;99.90;;;;;;5055245;28;20453;-81
2021/07/08 05:45:14;;;;;;;12.20;11.10;;;16.50;99.90;;;;;;5044819;28;20460;-82
2021/07/08 05:47:41;;;;;;;13.90;12.80;;;16.50;99.90;;;;;;5046303;28;20460;-81
2021/07/08 05:50:10;;;;;;;12.93;11.83;;;16.50;99.90;;;;;;5041749;28;20457;-82
2021/07/08 05:52:37;;;;;;;11.77;10.57;;;16.50;99.90;;;;;;5042315;28;20451;-83
2021/07/08 05:55:04;;;;;;;13.40;12.03;;;16.50;99.90;;;;;;5049764;28;20485;-83
2021/07/08 05:57:33;;;;;;;13.73;12.30;;;16.50;99.90;;;;;;5050223;28;20527;-81
2021/07/08 06:00:00;;;;;;;13.23;12.07;;;16.50;99.90;;;;;;5045568;28;20692;-82
2021/07/08 06:02:26;;;;;;;14.60;13.30;;;16.40;99.90;;;;;;5050077;28;20446;-81
2021/07/08 06:04:53;;;;;;;17.23;15.47;;;16.40;99.90;;;;;;5045790;28;20460;-82
2021/07/08 06:07:22;;;;;;;18.20;16.37;;;16.30;99.90;;;;;;5048028;28;20474;-84
2021/07/08 06:09:49;;;;;;;18.70;16.80;;;16.30;99.90;;;;;;5053546;28;20534;-83
2021/07/08 06:12:16;;;;;;;19.57;17.77;;;16.40;99.90;;;;;;5057281;28;20445;-82
2021/07/08 06:14:45;;;;;;;19.60;17.70;;;16.40;99.90;;;;;;5058863;28;20442;-83
2021/07/08 06:17:12;;;;;;;18.13;16.37;;;16.40;99.90;;;;;;5069622;28;20503;-82
2021/07/08 06:19:39;;;;;;;19.17;17.17;;;16.50;99.90;;;;;;5064178;28;20606;-83
2021/07/08 06:22:06;;;;;;;18.73;17.00;;;16.50;99.90;;;;;;5064808;28;20454;-83
2021/07/08 06:24:33;;;;;;;19.37;17.30;;;16.60;99.90;;;;;;5061948;28;20458;-84
2021/07/08 06:27:00;;;;;;;18.67;16.87;;;16.60;99.90;;;;;;5051430;28;20517;-80
2021/07/08 06:29:27;;;;;;;17.13;15.60;;;16.60;99.90;;;;;;5053601;28;20447;-87
2021/07/08 06:31:56;;;;;;;17.47;15.67;;;16.70;99.90;;;;;;5064718;28;20469;-84
2021/07/08 06:34:23;;;;;;;18.67;16.63;;;16.70;99.90;;;;;;5061635;28;20965;-85
2021/07/08 06:36:50;;;;;;;19.60;17.70;;;16.70;99.90;;;;;;5055058;28;20615;-87
2021/07/08 06:39:20;;;;;;;18.13;16.53;;;16.70;99.90;;;;;;5069554;28;21035;-85
2021/07/08 06:41:47;;;;;;;16.13;14.53;;;16.70;99.90;;;;;;5056461;28;20925;-85
2021/07/08 06:44:14;;;;;;;18.87;17.10;;;16.60;99.90;;;;;;5056470;28;20516;-85
2021/07/08 06:46:49;;;;;;;18.17;16.27;;;16.60;99.90;;;;;;5051854;28;20462;-85
2021/07/08 06:49:18;;;;;;;15.83;14.50;;;16.60;99.90;;;;;;5054142;28;20476;-83
2021/07/08 06:51:46;;;;;;;17.17;15.70;;;16.50;99.90;;;;;;5051724;28;20506;-85
2021/07/08 06:54:15;;;;;;;14.30;13.20;;;16.50;99.90;;;;;;5046497;28;20468;-81
2021/07/08 06:56:43;;;;;;;13.47;12.37;;;16.50;99.90;;;;;;5046459;28;20474;-83
2021/07/08 06:59:10;;;;;;;15.10;13.70;;;16.60;99.90;;;;;;5040940;28;20506;-79
2021/07/08 07:01:38;;;;;;;11.80;10.80;;;16.70;99.90;;;;;;5037035;28;20454;-79
2021/07/08 07:04:05;;;;;;;13.03;11.70;;;16.70;99.90;;;;;;5040914;28;21752;-80
2021/07/08 07:06:34;;;;;;;15.13;9.47;;;16.80;99.90;;;;;;5046378;28;20483;-79
2021/07/08 07:09:04;;;;;;;6.93;6.33;;;16.90;99.90;;;;;;5049325;28;20513;-80
2021/07/08 07:11:31;;;;;;;7.77;7.27;;;16.90;99.90;;;;;;5050700;28;20876;-78
2021/07/08 07:13:58;;;;;;;7.20;6.70;;;17.00;99.90;;;;;;5045407;28;21210;-78
2021/07/08 07:16:25;;;;;;;7.80;7.23;;;17.10;99.90;;;;;;5040774;28;20495;-81
2021/07/08 07:18:52;;;;;;;9.20;7.33;;;17.10;99.90;;;;;;5041217;28;20461;-82
2021/07/08 07:21:20;;;;;;;7.83;7.13;;;17.10;99.90;;;;;;5044783;28;21554;-79
2021/07/08 07:23:49;;;;;;;8.10;7.53;;;17.10;99.90;;;;;;5044679;28;20547;-79
2021/07/08 07:26:20;;;;;;;7.90;7.40;;;17.10;99.90;;;;;;5051148;28;20468;-79
2021/07/08 07:28:47;;;;;;;7.23;6.73;;;17.10;99.90;;;;;;5046494;28;20481;-79
2021/07/08 07:31:14;;;;;;;7.27;6.73;;;17.10;99.90;;;;;;5039549;28;20450;-80
2021/07/08 07:33:42;;;;;;;7.83;7.10;;;17.10;99.90;;;;;;5038597;28;20489;-79
2021/07/08 07:36:10;;;;;;;6.47;6.00;;;17.10;99.90;;;;;;5040265;28;20463;-79
2021/07/08 07:38:37;;;;;;;5.60;5.30;;;17.10;99.90;;;;;;5042808;28;20506;-80
2021/07/08 07:41:06;;;;;;;6.03;5.53;;;17.00;99.90;;;;;;5048266;28;20455;-80
2021/07/08 07:43:33;;;;;;;5.80;5.43;;;17.00;99.90;;;;;;5037424;28;20461;-79
2021/07/08 07:46:01;;;;;;;5.93;5.43;;;17.00;99.90;;;;;;5039104;28;20478;-79
2021/07/08 07:48:28;;;;;;;5.80;5.30;;;17.00;99.90;;;;;;5041786;28;20450;-81
2021/07/08 07:50:55;;;;;;;8.70;8.00;;;17.00;99.90;;;;;;5043334;28;20458;-80
2021/07/08 07:53:22;;;;;;;7.93;7.33;;;17.00;99.90;;;;;;5043598;28;20443;-79
2021/07/08 07:55:50;;;;;;;7.40;6.80;;;17.10;99.90;;;;;;5045560;28;20472;-75
2021/07/08 07:58:19;;;;;;;7.57;6.73;;;17.20;99.90;;;;;;5025642;28;20447;-77
2021/07/08 08:00:47;;;;;;;5.90;5.40;;;17.20;99.90;;;;;;5036388;28;20521;-78
2021/07/08 08:03:15;;;;;;;8.60;6.30;;;17.20;99.90;;;;;;5034802;28;20554;-80
2021/07/08 08:05:43;;;;;;;9.03;6.30;;;17.30;99.90;;;;;;5037931;28;20859;-77
2021/07/08 08:08:28;;;;;;;5.03;4.73;;;17.30;99.90;;;;;;5033179;28;20475;-78
2021/07/08 08:10:57;;;;;;;7.10;6.53;;;17.30;99.90;;;;;;5029817;28;20503;-80
2021/07/08 08:13:26;;;;;;;7.40;6.80;;;17.30;99.90;;;;;;5034231;28;20957;-79
2021/07/08 08:15:53;;;;;;;8.03;7.00;;;17.40;99.90;;;;;;5036178;28;20509;-79
2021/07/08 08:18:22;;;;;;;6.67;6.17;;;17.50;99.90;;;;;;5039582;28;20484;-79
2021/07/08 08:20:50;;;;;;;6.20;5.80;;;17.80;99.90;;;;;;5046953;28;20467;-79
2021/07/08 08:23:17;;;;;;;5.00;4.60;;;17.80;99.90;;;;;;5044614;28;20952;-79
2021/07/08 08:25:44;;;;;;;5.90;4.20;;;18.00;99.90;;;;;;5029457;28;20500;-84
2021/07/08 08:28:11;;;;;;;4.83;4.50;;;18.10;99.90;;;;;;5038039;28;20486;-79
2021/07/08 08:30:40;;;;;;;4.60;4.27;;;18.40;99.90;;;;;;5036940;28;20488;-77
2021/07/08 08:33:07;;;;;;;4.30;4.00;;;18.90;99.90;;;;;;5041311;28;21051;-79
2021/07/08 08:35:34;;;;;;;4.03;3.77;;;19.30;99.90;;;;;;5035882;28;20952;-79
2021/07/08 08:38:01;;;;;;;18.60;5.80;;;19.40;99.90;;;;;;5035182;28;20532;-77
2021/07/08 08:40:29;;;;;;;8.83;3.83;;;19.40;99.90;;;;;;5032320;28;20457;-78
2021/07/08 08:42:56;;;;;;;5.50;4.10;;;19.40;99.90;;;;;;5032109;28;20446;-79
2021/07/08 08:45:23;;;;;;;3.43;3.23;;;19.50;99.60;;;;;;5045971;28;20455;-79
2021/07/08 08:48:01;;;;;;;4.53;2.40;;;19.70;98.70;;;;;;5039652;28;20509;-79
2021/07/08 08:50:29;;;;;;;2.83;2.47;;;19.80;96.60;;;;;;5043706;28;21155;-80
2021/07/08 08:52:56;;;;;;;4.20;2.50;;;19.80;94.50;;;;;;5042122;28;20511;-79
2021/07/08 08:55:24;;;;;;;3.73;2.63;;;19.80;94.30;;;;;;5045516;28;20463;-79
2021/07/08 08:57:50;;;;;;;3.30;3.00;;;19.70;93.10;;;;;;5044455;28;20504;-78
2021/07/08 09:00:41;;;;;;;6.63;3.67;;;19.70;93.50;;;;;;5040142;28;20583;-78
2021/07/08 09:03:11;;;;;;;16.10;3.60;;;19.60;92.60;;;;;;5047276;28;20448;-78
2021/07/08 09:05:46;;;;;;;9.83;3.40;;;19.60;93.20;;;;;;5039799;28;20445;-79
2021/07/08 09:08:18;;;;;;;6.33;2.90;;;19.70;93.20;;;;;;5042678;28;21879;-78
2021/07/08 09:10:46;;;;;;;9.70;3.97;;;19.80;91.90;;;;;;5042020;28;20947;-78
2021/07/08 09:13:13;;;;;;;8.10;3.00;;;19.60;92.70;;;;;;5041051;28;20441;-79
2021/07/08 09:15:40;;;;;;;6.40;2.97;;;20.00;93.90;;;;;;5039158;28;20458;-80
2021/07/08 09:18:08;;;;;;;3.30;2.40;;;20.10;91.50;;;;;;5046053;28;20524;-80
2021/07/08 09:20:36;;;;;;;3.50;2.50;;;20.00;92.30;;;;;;5036083;28;20510;-79
2021/07/08 09:23:16;;;;;;;2.60;2.40;;;20.10;92.70;;;;;;5039374;28;20484;-79
2021/07/08 09:25:45;;;;;;;2.70;2.50;;;20.00;92.80;;;;;;5045106;28;20462;-81
2021/07/08 09:28:22;;;;;;;4.43;2.60;;;19.90;91.90;;;;;;5043003;28;20472;-79
2021/07/08 09:31:02;;;;;;;4.40;2.30;;;19.70;94.00;;;;;;5040079;28;20501;-79
2021/07/08 09:33:39;;;;;;;2.93;2.43;;;20.10;93.40;;;;;;5051852;28;20451;-79
2021/07/08 09:36:11;;;;;;;9.00;2.90;;;20.80;90.90;;;;;;5043334;28;20451;-77
2021/07/08 09:38:40;;;;;;;7.37;3.00;;;21.10;89.30;;;;;;5056395;28;20451;-79
2021/07/08 09:41:10;;;;;;;28.67;5.67;;;21.00;89.00;;;;;;5051727;28;20493;-79
2021/07/08 09:43:40;;;;;;;6.20;2.37;;;21.30;90.00;;;;;;5055506;28;20438;-83
2021/07/08 09:46:08;;;;;;;2.10;1.90;;;21.20;89.40;;;;;;5060116;28;20556;-83
2021/07/08 09:48:42;;;;;;;2.03;1.80;;;21.60;88.00;;;;;;5058177;28;20539;-82
2021/07/08 09:51:28;;;;;;;2.27;2.17;;;21.70;85.50;;;;;;5054097;28;20502;-81
2021/07/08 09:54:04;;;;;;;2.13;1.93;;;22.00;85.90;;;;;;5052528;28;20449;-81
2021/07/08 09:56:46;;;;;;;1.77;1.67;;;22.50;80.90;;;;;;5055317;28;20504;-81
2021/07/08 09:59:14;;;;;;;2.30;2.20;;;22.90;79.00;;;;;;5052422;28;20464;-81
2021/07/08 10:01:42;;;;;;;2.07;1.87;;;23.10;80.10;;;;;;5055059;28;20453;-82
2021/07/08 10:04:11;;;;;;;25.13;5.40;;;23.20;76.30;;;;;;5052466;28;20453;-81
2021/07/08 10:06:39;;;;;;;9.77;3.27;;;23.20;75.60;;;;;;5049217;28;20441;-82
2021/07/08 10:09:07;;;;;;;2.57;1.83;;;23.30;76.80;;;;;;5052866;28;20461;-82
2021/07/08 10:11:34;;;;;;;1.80;1.70;;;23.40;75.90;;;;;;5052165;28;20456;-81
2021/07/08 10:14:03;;;;;;;1.70;1.50;;;23.70;73.50;;;;;;5056208;28;20490;-81
2021/07/08 10:16:32;;;;;;;1.70;1.60;;;22.60;72.40;;;;;;5057581;28;20496;-85
2021/07/08 10:19:03;;;;;;;3.27;1.90;;;22.60;74.70;;;;;;5050059;28;20521;-80
2021/07/08 10:21:32;;;;;;;1.80;1.70;;;22.60;73.40;;;;;;5042700;28;20496;-77
2021/07/08 10:24:01;;;;;;;1.97;1.87;;;23.20;71.80;;;;;;5039565;28;20456;-78
2021/07/08 10:26:28;;;;;;;3.53;2.03;;;23.60;71.70;;;;;;5030410;28;20458;-75
2021/07/08 10:28:57;;;;;;;3.93;1.97;;;24.00;72.30;;;;;;5030958;28;21255;-74
2021/07/08 10:31:26;;;;;;;51.60;7.60;;;24.10;72.80;;;;;;5028613;28;20452;-76
2021/07/08 10:34:14;;;;;;;9.80;2.70;;;23.50;71.70;;;;;;5032139;28;20462;-76
2021/07/08 10:36:44;;;;;;;13.97;3.50;;;23.70;70.80;;;;;;5031416;28;20735;-77
2021/07/08 10:39:14;;;;;;;5.90;2.77;;;23.20;69.50;;;;;;5030358;28;20463;-77
2021/07/08 10:41:59;;;;;;;6.10;2.70;;;23.60;70.50;;;;;;5034790;28;20528;-77
2021/07/08 10:44:46;;;;;;;12.40;3.63;;;23.70;70.60;;;;;;5030136;28;20446;-77
2021/07/08 10:47:33;;;;;;;9.47;3.33;;;23.30;70.40;;;;;;5029253;28;20554;-77
2021/07/08 10:50:01;;;;;;;2.73;2.43;;;23.20;71.20;;;;;;5027730;28;20541;-77
2021/07/08 10:52:44;;;;;;;2.27;2.17;;;23.40;69.90;;;;;;5026034;28;20468;-77
2021/07/08 10:55:12;;;;;;;4.17;2.93;;;23.70;69.90;;;;;;5040379;28;21098;-77
2021/07/08 10:57:39;;;;;;;5.60;2.60;;;23.50;70.30;;;;;;5029618;28;20799;-77
2021/07/08 11:00:08;;;;;;;3.90;2.47;;;23.70;69.30;;;;;;5032058;28;20512;-77
2021/07/08 11:02:45;;;;;;;2.87;2.67;;;24.00;68.40;;;;;;5032273;28;20815;-77
2021/07/08 11:05:12;;;;;;;2.40;2.30;;;24.40;69.30;;;;;;5032694;28;20442;-77
2021/07/08 11:07:47;;;;;;;2.40;2.20;;;24.50;68.30;;;;;;5032680;28;20838;-77
2021/07/08 11:10:15;;;;;;;2.73;2.53;;;23.80;67.80;;;;;;5029101;28;20791;-76
2021/07/08 11:12:43;;;;;;;4.50;3.77;;;23.30;68.80;;;;;;5031590;28;20535;-77
2021/07/08 11:15:10;;;;;;;3.70;3.40;;;22.60;68.90;;;;;;5025354;28;20450;-77
2021/07/08 11:17:42;;;;;;;9.17;3.67;;;22.10;69.50;;;;;;5025288;28;20462;-77
2021/07/08 11:20:33;;;;;;;6.50;3.90;;;21.90;71.00;;;;;;5034551;28;20818;-77
2021/07/08 11:23:34;;;;;;;3.93;2.90;;;22.00;71.90;;;;;;5026592;28;20620;-77
2021/07/08 11:26:02;;;;;;;3.53;3.33;;;22.20;71.90;;;;;;5037711;28;20535;-77
2021/07/08 11:28:31;;;;;;;11.03;4.50;;;22.40;69.70;;;;;;5034459;28;20478;-77
2021/07/08 11:30:58;;;;;;;5.80;4.10;;;22.40;70.30;;;;;;5032305;28;20544;-77
2021/07/08 11:33:26;;;;;;;4.17;3.87;;;22.30;70.40;;;;;;5029263;28;20460;-77
2021/07/08 11:35:56;;;;;;;5.03;4.67;;;22.30;71.20;;;;;;5035672;28;20448;-78
2021/07/08 11:38:25;;;;;;;3.60;3.30;;;22.50;71.10;;;;;;5035583;28;20445;-78
2021/07/08 11:40:54;;;;;;;4.30;4.00;;;22.50;70.80;;;;;;5033687;28;20444;-78
2021/07/08 11:43:27;;;;;;;8.53;4.07;;;22.80;71.50;;;;;;5031158;28;20529;-79
2021/07/08 11:45:56;;;;;;;4.97;4.53;;;22.90;71.00;;;;;;5038069;28;20458;-78
2021/07/08 11:48:25;;;;;;;15.30;5.83;;;23.10;72.10;;;;;;5032459;28;20487;-79
2021/07/08 11:50:52;;;;;;;4.43;4.13;;;23.60;71.30;;;;;;5038570;28;20520;-79
2021/07/08 11:53:21;;;;;;;5.00;4.50;;;23.50;69.10;;;;;;5038310;28;20481;-80
2021/07/08 11:55:50;;;;;;;5.50;4.27;;;23.30;69.60;;;;;;5043049;28;20446;-80
2021/07/08 11:58:22;;;;;;;7.63;5.17;;;23.00;69.80;;;;;;5055221;28;20982;-82
2021/07/08 12:00:52;;;;;;;13.77;5.50;;;22.70;70.80;;;;;;5057196;28;20453;-81
2021/07/08 12:03:25;;;;;;;8.60;5.00;;;22.40;70.90;;;;;;5051468;28;20505;-81
2021/07/08 12:05:57;;;;;;;4.80;4.50;;;22.20;71.10;;;;;;5042935;28;20445;-80
2021/07/08 12:08:26;;;;;;;9.50;5.60;;;22.70;71.00;;;;;;5041245;28;23241;-79
2021/07/08 12:11:08;;;;;;;12.53;5.77;;;22.50;70.20;;;;;;5043380;28;20452;-80
2021/07/08 12:13:39;;;;;;;38.17;8.97;;;22.70;70.70;;;;;;5040163;28;20449;-80
2021/07/08 12:16:09;;;;;;;5.03;4.63;;;22.40;70.70;;;;;;5038843;28;20487;-80
2021/07/08 12:18:40;;;;;;;7.17;5.13;;;22.40;69.00;;;;;;5038632;28;20453;-79
2021/07/08 12:21:18;;;;;;;9.20;4.57;;;22.10;69.60;;;;;;5038266;28;20530;-79
2021/07/08 12:23:45;;;;;;;5.50;4.60;;;21.80;69.50;;;;;;5035023;28;20550;-79
2021/07/08 12:26:26;;;;;;;5.13;4.73;;;22.00;70.80;;;;;;5038085;28;20470;-81
2021/07/08 12:29:20;;;;;;;8.70;4.83;;;22.10;70.40;;;;;;5037322;28;20496;-78
2021/07/08 12:31:51;;;;;;;9.20;4.80;;;21.80;69.40;;;;;;5033257;28;21008;-80
2021/07/08 12:34:20;;;;;;;20.77;6.27;;;21.20;70.70;;;;;;5030616;28;20548;-83
2021/07/08 12:36:48;;;;;;;17.53;6.97;;;21.20;71.00;;;;;;5038338;28;20543;-82
2021/07/08 12:39:24;;;;;;;7.87;5.37;;;21.20;71.10;;;;;;5045573;28;20453;-78
2021/07/08 12:41:51;;;;;;;8.80;4.87;;;21.50;72.50;;;;;;5043378;28;20471;-81
2021/07/08 12:44:18;;;;;;;5.53;5.03;;;21.40;72.10;;;;;;5041520;28;20491;-79